sensor_id;sensor_type;location;lat;lon;timestamp;P1;durP1;ratioP1;P2;durP2;ratioP2
43861;SDS011;29510;52.140;5.034;2023-11-18T00:04:33;35.28;;;18.63;;
43861;SDS011;29510;52.140;5.034;2023-11-18T00:14:34;34.08;;;19.58;;
43861;SDS011;29510;52.140;5.034;2023-11-18T00:24:34;29.73;;;18.08;;
43861;SDS011;29510;52.140;5.034;2023-11-18T00:34:35;29.83;;;17.92;;
43861;SDS011;29510;52.140;5.034;2023-11-18T00:44:35;37.23;;;20.60;;
43861;SDS011;29510;52.140;5.034;2023-11-18T00:54:36;32.10;;;18.38;;
43861;SDS011;29510;52.140;5.034;2023-11-18T01:04:37;29.42;;;16.83;;
43861;SDS011;29510;52.140;5.034;2023-11-18T01:14:38;28.20;;;17.33;;
43861;SDS011;29510;52.140;5.034;2023-11-18T01:24:39;27.67;;;17.45;;
43861;SDS011;29510;52.140;5.034;2023-11-18T01:34:39;27.08;;;16.55;;
43861;SDS011;29510;52.140;5.034;2023-11-18T01:44:40;29.90;;;18.38;;
43861;SDS011;29510;52.140;5.034;2023-11-18T01:54:41;28.52;;;16.75;;
43861;SDS011;29510;52.140;5.034;2023-11-18T02:04:44;31.35;;;16.42;;
43861;SDS011;29510;52.140;5.034;2023-11-18T02:14:45;27.08;;;14.85;;
43861;SDS011;29510;52.140;5.034;2023-11-18T02:24:46;25.92;;;15.27;;
43861;SDS011;29510;52.140;5.034;2023-11-18T02:34:49;31.23;;;15.77;;
43861;SDS011;29510;52.140;5.034;2023-11-18T02:44:55;26.45;;;14.98;;
43861;SDS011;29510;52.140;5.034;2023-11-18T02:54:59;23.63;;;15.48;;
43861;SDS011;29510;52.140;5.034;2023-11-18T03:05:00;26.92;;;16.80;;
43861;SDS011;29510;52.140;5.034;2023-11-18T03:15:00;28.05;;;17.17;;
43861;SDS011;29510;52.140;5.034;2023-11-18T03:25:01;26.70;;;15.70;;
43861;SDS011;29510;52.140;5.034;2023-11-18T03:35:05;25.90;;;16.25;;
43861;SDS011;29510;52.140;5.034;2023-11-18T03:45:09;25.83;;;15.05;;
43861;SDS011;29510;52.140;5.034;2023-11-18T03:55:10;25.50;;;15.17;;
43861;SDS011;29510;52.140;5.034;2023-11-18T04:05:11;24.02;;;15.07;;
43861;SDS011;29510;52.140;5.034;2023-11-18T04:15:12;26.63;;;15.05;;
43861;SDS011;29510;52.140;5.034;2023-11-18T04:25:12;25.73;;;13.85;;
43861;SDS011;29510;52.140;5.034;2023-11-18T04:35:13;26.13;;;13.93;;
43861;SDS011;29510;52.140;5.034;2023-11-18T04:45:14;23.77;;;13.45;;
43861;SDS011;29510;52.140;5.034;2023-11-18T04:55:14;25.67;;;13.80;;
43861;SDS011;29510;52.140;5.034;2023-11-18T05:05:15;22.63;;;13.77;;
43861;SDS011;29510;52.140;5.034;2023-11-18T05:15:17;20.83;;;11.73;;
43861;SDS011;29510;52.140;5.034;2023-11-18T05:25:17;25.30;;;12.52;;
43861;SDS011;29510;52.140;5.034;2023-11-18T05:35:18;30.15;;;12.50;;
43861;SDS011;29510;52.140;5.034;2023-11-18T05:45:18;24.65;;;12.65;;
43861;SDS011;29510;52.140;5.034;2023-11-18T05:55:28;25.92;;;12.48;;
43861;SDS011;29510;52.140;5.034;2023-11-18T06:05:28;25.48;;;12.35;;
43861;SDS011;29510;52.140;5.034;2023-11-18T06:15:34;26.92;;;12.50;;
43861;SDS011;29510;52.140;5.034;2023-11-18T06:25:38;28.23;;;13.23;;
43861;SDS011;29510;52.140;5.034;2023-11-18T06:35:39;33.63;;;13.38;;
43861;SDS011;29510;52.140;5.034;2023-11-18T06:45:43;28.27;;;13.18;;
43861;SDS011;29510;52.140;5.034;2023-11-18T06:55:43;26.60;;;13.45;;
43861;SDS011;29510;52.140;5.034;2023-11-18T07:05:44;26.17;;;13.40;;
43861;SDS011;29510;52.140;5.034;2023-11-18T07:15:45;29.10;;;14.07;;
43861;SDS011;29510;52.140;5.034;2023-11-18T07:25:45;27.90;;;14.47;;
43861;SDS011;29510;52.140;5.034;2023-11-18T07:35:46;26.35;;;15.00;;
43861;SDS011;29510;52.140;5.034;2023-11-18T07:45:48;25.08;;;14.45;;
43861;SDS011;29510;52.140;5.034;2023-11-18T07:55:53;31.15;;;15.90;;
43861;SDS011;29510;52.140;5.034;2023-11-18T08:05:53;28.67;;;14.93;;
43861;SDS011;29510;52.140;5.034;2023-11-18T08:15:55;31.85;;;14.52;;
43861;SDS011;29510;52.140;5.034;2023-11-18T08:25:57;25.45;;;13.48;;
43861;SDS011;29510;52.140;5.034;2023-11-18T08:35:58;25.17;;;12.50;;
43861;SDS011;29510;52.140;5.034;2023-11-18T08:46:01;25.35;;;12.82;;
43861;SDS011;29510;52.140;5.034;2023-11-18T08:56:02;21.90;;;11.65;;
43861;SDS011;29510;52.140;5.034;2023-11-18T09:06:06;19.77;;;10.63;;
43861;SDS011;29510;52.140;5.034;2023-11-18T09:16:17;21.45;;;9.40;;
43861;SDS011;29510;52.140;5.034;2023-11-18T09:26:17;17.88;;;8.30;;
43861;SDS011;29510;52.140;5.034;2023-11-18T09:36:19;17.88;;;7.65;;
43861;SDS011;29510;52.140;5.034;2023-11-18T09:46:23;17.30;;;7.03;;
43861;SDS011;29510;52.140;5.034;2023-11-18T10:07:08;12.85;;;6.93;;
43861;SDS011;29510;52.140;5.034;2023-11-18T10:17:11;11.20;;;5.40;;
43861;SDS011;29510;52.140;5.034;2023-11-18T10:27:14;10.20;;;5.30;;
43861;SDS011;29510;52.140;5.034;2023-11-18T10:37:15;10.45;;;4.90;;
43861;SDS011;29510;52.140;5.034;2023-11-18T10:47:17;13.40;;;4.88;;
43861;SDS011;29510;52.140;5.034;2023-11-18T10:57:17;13.77;;;4.50;;
43861;SDS011;29510;52.140;5.034;2023-11-18T11:07:19;9.68;;;4.25;;
43861;SDS011;29510;52.140;5.034;2023-11-18T11:17:23;10.15;;;4.78;;
43861;SDS011;29510;52.140;5.034;2023-11-18T11:27:33;12.57;;;4.80;;
43861;SDS011;29510;52.140;5.034;2023-11-18T11:37:52;10.25;;;6.13;;
43861;SDS011;29510;52.140;5.034;2023-11-18T11:48:02;10.07;;;4.38;;
43861;SDS011;29510;52.140;5.034;2023-11-18T11:58:25;9.65;;;4.10;;
43861;SDS011;29510;52.140;5.034;2023-11-18T12:08:28;9.70;;;4.38;;
43861;SDS011;29510;52.140;5.034;2023-11-18T12:18:29;11.02;;;4.15;;
43861;SDS011;29510;52.140;5.034;2023-11-18T12:28:36;8.60;;;4.13;;
43861;SDS011;29510;52.140;5.034;2023-11-18T12:49:03;7.88;;;3.67;;
43861;SDS011;29510;52.140;5.034;2023-11-18T12:59:05;6.55;;;3.17;;
43861;SDS011;29510;52.140;5.034;2023-11-18T13:09:06;5.00;;;2.08;;
43861;SDS011;29510;52.140;5.034;2023-11-18T13:19:09;6.32;;;2.20;;
43861;SDS011;29510;52.140;5.034;2023-11-18T13:29:10;3.92;;;1.98;;
43861;SDS011;29510;52.140;5.034;2023-11-18T13:39:17;2.53;;;1.35;;
43861;SDS011;29510;52.140;5.034;2023-11-18T13:49:20;2.60;;;1.40;;
43861;SDS011;29510;52.140;5.034;2023-11-18T13:59:20;3.78;;;1.65;;
43861;SDS011;29510;52.140;5.034;2023-11-18T14:09:22;2.83;;;1.50;;
43861;SDS011;29510;52.140;5.034;2023-11-18T14:19:25;4.20;;;1.83;;
43861;SDS011;29510;52.140;5.034;2023-11-18T14:29:26;2.58;;;1.60;;
43861;SDS011;29510;52.140;5.034;2023-11-18T14:39:28;4.15;;;1.70;;
43861;SDS011;29510;52.140;5.034;2023-11-18T14:49:29;3.35;;;1.60;;
43861;SDS011;29510;52.140;5.034;2023-11-18T14:59:30;2.97;;;1.88;;
43861;SDS011;29510;52.140;5.034;2023-11-18T15:09:31;3.80;;;1.80;;
43861;SDS011;29510;52.140;5.034;2023-11-18T15:19:32;3.05;;;1.90;;
43861;SDS011;29510;52.140;5.034;2023-11-18T15:29:33;3.00;;;2.15;;
43861;SDS011;29510;52.140;5.034;2023-11-18T15:39:38;2.50;;;1.13;;
43861;SDS011;29510;52.140;5.034;2023-11-18T15:49:39;2.58;;;1.70;;
43861;SDS011;29510;52.140;5.034;2023-11-18T15:59:39;2.42;;;1.50;;
43861;SDS011;29510;52.140;5.034;2023-11-18T16:09:40;3.40;;;1.40;;
43861;SDS011;29510;52.140;5.034;2023-11-18T16:19:40;2.47;;;1.80;;
43861;SDS011;29510;52.140;5.034;2023-11-18T16:29:41;3.38;;;2.17;;
43861;SDS011;29510;52.140;5.034;2023-11-18T16:39:42;3.97;;;2.80;;
43861;SDS011;29510;52.140;5.034;2023-11-18T16:49:42;5.28;;;3.67;;
43861;SDS011;29510;52.140;5.034;2023-11-18T16:59:44;5.75;;;4.45;;
43861;SDS011;29510;52.140;5.034;2023-11-18T17:09:45;7.65;;;5.63;;
43861;SDS011;29510;52.140;5.034;2023-11-18T17:19:45;8.68;;;6.45;;
43861;SDS011;29510;52.140;5.034;2023-11-18T17:29:46;10.13;;;7.70;;
43861;SDS011;29510;52.140;5.034;2023-11-18T17:39:46;12.68;;;9.95;;
43861;SDS011;29510;52.140;5.034;2023-11-18T17:49:47;15.95;;;12.13;;
43861;SDS011;29510;52.140;5.034;2023-11-18T17:59:47;20.13;;;14.95;;
43861;SDS011;29510;52.140;5.034;2023-11-18T18:09:48;18.83;;;14.73;;
43861;SDS011;29510;52.140;5.034;2023-11-18T18:19:49;22.90;;;16.45;;
43861;SDS011;29510;52.140;5.034;2023-11-18T18:29:50;20.98;;;14.85;;
43861;SDS011;29510;52.140;5.034;2023-11-18T18:39:51;19.80;;;13.98;;
43861;SDS011;29510;52.140;5.034;2023-11-18T18:49:52;19.70;;;13.20;;
43861;SDS011;29510;52.140;5.034;2023-11-18T18:59:53;18.63;;;13.45;;
43861;SDS011;29510;52.140;5.034;2023-11-18T19:09:54;18.98;;;13.45;;
43861;SDS011;29510;52.140;5.034;2023-11-18T19:19:54;23.40;;;15.17;;
43861;SDS011;29510;52.140;5.034;2023-11-18T19:29:55;25.98;;;16.40;;
43861;SDS011;29510;52.140;5.034;2023-11-18T19:39:55;26.40;;;18.25;;
43861;SDS011;29510;52.140;5.034;2023-11-18T19:49:56;29.90;;;18.35;;
43861;SDS011;29510;52.140;5.034;2023-11-18T19:59:57;31.60;;;18.67;;
43861;SDS011;29510;52.140;5.034;2023-11-18T20:09:58;27.65;;;17.60;;
43861;SDS011;29510;52.140;5.034;2023-11-18T20:19:59;28.25;;;17.83;;
43861;SDS011;29510;52.140;5.034;2023-11-18T20:29:59;25.70;;;18.00;;
43861;SDS011;29510;52.140;5.034;2023-11-18T20:40:00;28.20;;;17.17;;
43861;SDS011;29510;52.140;5.034;2023-11-18T20:50:04;23.85;;;15.68;;
43861;SDS011;29510;52.140;5.034;2023-11-18T21:00:05;22.73;;;15.32;;
43861;SDS011;29510;52.140;5.034;2023-11-18T21:10:07;22.95;;;14.23;;
43861;SDS011;29510;52.140;5.034;2023-11-18T21:20:08;28.42;;;15.75;;
43861;SDS011;29510;52.140;5.034;2023-11-18T21:30:15;28.85;;;16.52;;
43861;SDS011;29510;52.140;5.034;2023-11-18T21:40:16;27.63;;;15.85;;
43861;SDS011;29510;52.140;5.034;2023-11-18T21:50:19;25.33;;;14.98;;
43861;SDS011;29510;52.140;5.034;2023-11-18T22:00:20;26.65;;;14.07;;
43861;SDS011;29510;52.140;5.034;2023-11-18T22:10:21;22.33;;;11.73;;
43861;SDS011;29510;52.140;5.034;2023-11-18T22:20:22;24.65;;;11.27;;
43861;SDS011;29510;52.140;5.034;2023-11-18T22:30:24;19.73;;;10.23;;
43861;SDS011;29510;52.140;5.034;2023-11-18T22:40:25;17.90;;;10.88;;
43861;SDS011;29510;52.140;5.034;2023-11-18T22:50:26;20.15;;;9.63;;
43861;SDS011;29510;52.140;5.034;2023-11-18T23:00:27;17.02;;;7.10;;
43861;SDS011;29510;52.140;5.034;2023-11-18T23:10:43;17.98;;;4.82;;
43861;SDS011;29510;52.140;5.034;2023-11-18T23:20:46;15.27;;;3.95;;
43861;SDS011;29510;52.140;5.034;2023-11-18T23:30:47;20.30;;;3.65;;
43861;SDS011;29510;52.140;5.034;2023-11-18T23:40:47;24.83;;;4.07;;
43861;SDS011;29510;52.140;5.034;2023-11-18T23:50:48;22.38;;;3.42;;
